createdAt,value
2023-07-11T00:00:10.103Z,11.20
2023-07-11T00:00:45.584Z,11.27
2023-07-11T00:01:19.187Z,11.10
2023-07-11T00:01:57.656Z,11.07
2023-07-11T00:02:31.576Z,11.57
2023-07-11T00:03:04.137Z,11.57
2023-07-11T00:03:36.339Z,11.37
2023-07-11T00:04:08.777Z,11.47
2023-07-11T00:04:47.868Z,12.10
2023-07-11T00:05:20.613Z,11.90
2023-07-11T00:06:01.013Z,11.53
2023-07-11T00:06:33.119Z,11.77
2023-07-11T00:07:06.035Z,12.10
2023-07-11T00:07:38.146Z,11.33
2023-07-11T00:08:10.459Z,11.30
2023-07-11T00:08:42.706Z,11.27
2023-07-11T00:09:16.644Z,12.03
2023-07-11T00:09:49.496Z,11.97
2023-07-11T00:10:23.702Z,11.83
2023-07-11T00:10:59.473Z,12.03
2023-07-11T00:11:32.066Z,12.33
2023-07-11T00:12:04.910Z,11.77
2023-07-11T00:12:39.383Z,11.50
2023-07-11T00:13:15.212Z,11.53
2023-07-11T00:13:49.092Z,11.10
2023-07-11T00:14:21.449Z,11.20
2023-07-11T00:14:53.438Z,12.37
2023-07-11T00:15:26.507Z,12.10
2023-07-11T00:16:01.083Z,12.13
2023-07-11T00:16:33.290Z,12.53
2023-07-11T00:17:06.444Z,12.43
2023-07-11T00:17:39.760Z,12.50
2023-07-11T00:18:12.709Z,12.87
2023-07-11T00:18:45.604Z,11.40
2023-07-11T00:19:18.307Z,11.97
2023-07-11T00:19:52.304Z,11.70
2023-07-11T00:20:24.598Z,12.27
2023-07-11T00:20:57.657Z,12.40
2023-07-11T00:21:29.920Z,12.63
2023-07-11T00:22:01.959Z,11.33
2023-07-11T00:22:34.872Z,11.57
2023-07-11T00:23:06.983Z,12.13
2023-07-11T00:23:40.457Z,11.80
2023-07-11T00:24:14.041Z,11.87
2023-07-11T00:24:46.767Z,12.37
2023-07-11T00:25:20.138Z,11.63
2023-07-11T00:25:56.611Z,11.80
2023-07-11T00:26:41.272Z,12.10
2023-07-11T00:27:15.238Z,11.57
2023-07-11T00:27:50.494Z,11.53
2023-07-11T00:28:22.856Z,11.87
2023-07-11T00:28:54.809Z,12.07
2023-07-11T00:29:26.876Z,11.47
2023-07-11T00:29:59.411Z,11.47
2023-07-11T00:30:34.123Z,11.53
2023-07-11T00:31:07.614Z,11.73
2023-07-11T00:31:41.228Z,11.70
2023-07-11T00:32:13.952Z,12.00
2023-07-11T00:32:46.751Z,12.03
2023-07-11T00:33:19.779Z,11.60
2023-07-11T00:34:05.641Z,11.77
2023-07-11T00:34:48.669Z,11.90
2023-07-11T00:35:30.608Z,11.80
2023-07-11T00:36:05.746Z,12.10
2023-07-11T00:36:38.081Z,11.93
2023-07-11T00:37:19.056Z,11.80
2023-07-11T00:37:53.310Z,11.77
2023-07-11T00:38:29.008Z,11.73
2023-07-11T00:39:01.033Z,12.03
2023-07-11T00:39:35.180Z,11.57
2023-07-11T00:40:08.360Z,11.03
2023-07-11T00:40:41.651Z,11.67
2023-07-11T00:41:15.308Z,12.07
2023-07-11T00:41:49.825Z,11.27
2023-07-11T00:42:21.830Z,11.70
2023-07-11T00:42:56.062Z,11.50
2023-07-11T00:43:28.211Z,12.10
2023-07-11T00:44:00.163Z,12.37
2023-07-11T00:44:52.541Z,11.87
2023-07-11T00:46:03.454Z,11.37
2023-07-11T00:46:37.230Z,11.87
2023-07-11T00:47:09.387Z,11.60
2023-07-11T00:47:41.561Z,11.63
2023-07-11T00:48:15.927Z,12.27
2023-07-11T00:48:53.184Z,12.57
2023-07-11T00:49:26.802Z,12.00
2023-07-11T00:50:05.004Z,11.97
2023-07-11T00:50:37.795Z,11.87
2023-07-11T00:51:14.836Z,12.10
2023-07-11T00:51:55.983Z,12.10
2023-07-11T00:52:30.262Z,11.93
2023-07-11T00:53:02.572Z,11.83
2023-07-11T00:53:38.053Z,11.57
2023-07-11T00:54:16.271Z,11.00
2023-07-11T00:54:52.687Z,11.57
2023-07-11T00:55:30.471Z,11.47
2023-07-11T00:56:07.907Z,11.77
2023-07-11T00:56:47.557Z,11.67
2023-07-11T00:57:34.111Z,11.63
2023-07-11T00:58:17.777Z,11.53
2023-07-11T00:58:51.141Z,11.97
2023-07-11T00:59:24.091Z,12.83
2023-07-11T00:59:57.815Z,13.10
2023-07-11T01:00:31.181Z,12.83
2023-07-11T01:01:05.850Z,11.97
2023-07-11T01:01:40.553Z,11.53
2023-07-11T01:02:21.860Z,11.73
2023-07-11T01:02:56.789Z,11.33
2023-07-11T01:03:29.306Z,11.13
2023-07-11T01:04:11.729Z,11.23
2023-07-11T01:04:46.756Z,12.07
2023-07-11T01:05:22.046Z,11.50
2023-07-11T01:05:58.774Z,12.37
2023-07-11T01:06:45.872Z,11.37
2023-07-11T01:07:22.436Z,11.13
2023-07-11T01:07:54.790Z,11.73
2023-07-11T01:08:28.404Z,11.30
2023-07-11T01:09:05.075Z,11.60
2023-07-11T01:09:46.386Z,11.73
2023-07-11T01:10:24.136Z,11.47
2023-07-11T01:10:56.475Z,11.40
2023-07-11T01:11:31.118Z,10.77
2023-07-11T01:12:06.778Z,11.87
2023-07-11T01:12:49.123Z,11.60
2023-07-11T01:13:23.409Z,11.07
2023-07-11T01:14:02.064Z,10.50
2023-07-11T01:14:34.527Z,11.10
2023-07-11T01:15:07.927Z,11.27
2023-07-11T01:15:43.745Z,11.67
2023-07-11T01:16:18.052Z,10.73
2023-07-11T01:16:56.220Z,11.30
2023-07-11T01:17:32.250Z,10.77
2023-07-11T01:18:04.509Z,11.50
2023-07-11T01:18:41.917Z,11.40
2023-07-11T01:19:21.209Z,11.67
2023-07-11T01:19:54.883Z,10.77
2023-07-11T01:20:26.944Z,11.20
2023-07-11T01:20:58.979Z,10.83
2023-07-11T01:21:32.332Z,11.07
2023-07-11T01:22:09.051Z,11.13
2023-07-11T01:22:47.600Z,11.00
2023-07-11T01:23:19.765Z,11.70
2023-07-11T01:23:51.802Z,11.40
2023-07-11T01:24:30.903Z,11.03
2023-07-11T01:25:22.484Z,11.90
2023-07-11T01:26:12.057Z,11.97
2023-07-11T01:26:46.976Z,11.50
2023-07-11T01:27:23.357Z,11.80
2023-07-11T01:27:59.675Z,11.87
2023-07-11T01:28:31.706Z,11.77
2023-07-11T01:29:09.518Z,11.17
2023-07-11T01:29:58.887Z,10.93
2023-07-11T01:30:32.414Z,11.53
2023-07-11T01:31:06.701Z,11.83
2023-07-11T01:31:42.457Z,10.37
2023-07-11T01:32:15.592Z,11.07
2023-07-11T01:32:54.356Z,10.90
2023-07-11T01:33:26.864Z,11.67
2023-07-11T01:34:02.967Z,11.60
2023-07-11T01:34:40.554Z,11.97
2023-07-11T01:35:13.482Z,11.73
2023-07-11T01:35:45.669Z,11.77
2023-07-11T01:36:17.815Z,11.57
2023-07-11T01:36:51.960Z,11.87
2023-07-11T01:37:25.046Z,11.30
2023-07-11T01:37:57.942Z,11.03
2023-07-11T01:38:30.177Z,11.67
2023-07-11T01:39:02.249Z,11.73
2023-07-11T01:39:35.465Z,11.37
2023-07-11T01:40:12.068Z,11.47
2023-07-11T01:40:49.044Z,11.83
2023-07-11T01:41:40.115Z,12.43
2023-07-11T01:42:12.658Z,12.03
2023-07-11T01:42:45.670Z,11.70
2023-07-11T01:43:20.268Z,11.13
2023-07-11T01:43:56.052Z,11.67
2023-07-11T01:44:29.315Z,11.43
2023-07-11T01:45:01.653Z,11.90
2023-07-11T01:45:35.776Z,11.70
2023-07-11T01:46:10.124Z,11.63
2023-07-11T01:46:43.508Z,11.63
2023-07-11T01:47:17.517Z,12.07
2023-07-11T01:47:51.595Z,12.33
2023-07-11T01:48:23.782Z,12.07
2023-07-11T01:48:56.801Z,11.37
2023-07-11T01:49:36.060Z,11.57
2023-07-11T01:50:12.996Z,12.53
2023-07-11T01:50:50.227Z,11.53
2023-07-11T01:51:36.726Z,11.60
2023-07-11T01:52:18.687Z,10.80
2023-07-11T01:52:52.737Z,12.07
2023-07-11T01:53:25.556Z,12.30
2023-07-11T01:54:04.163Z,12.20
2023-07-11T01:54:47.668Z,11.53
2023-07-11T01:55:25.567Z,12.10
2023-07-11T01:56:01.941Z,11.57
2023-07-11T01:56:38.902Z,12.50
2023-07-11T01:57:11.745Z,12.07
2023-07-11T01:57:44.082Z,11.37
2023-07-11T01:58:17.523Z,11.30
2023-07-11T01:58:51.708Z,11.40
2023-07-11T01:59:25.250Z,11.87
2023-07-11T02:00:06.030Z,12.50
2023-07-11T02:00:49.043Z,11.97
2023-07-11T02:01:21.154Z,11.10
2023-07-11T02:01:59.813Z,11.77
2023-07-11T02:02:33.047Z,11.23
2023-07-11T02:03:06.559Z,10.93
2023-07-11T02:03:38.810Z,11.23
2023-07-11T02:04:16.408Z,11.40
2023-07-11T02:04:49.303Z,11.27
2023-07-11T02:05:25.716Z,11.83
2023-07-11T02:06:02.049Z,11.83
2023-07-11T02:06:35.395Z,12.20
2023-07-11T02:07:12.803Z,11.43
2023-07-11T02:07:46.669Z,11.87
2023-07-11T02:08:22.168Z,12.37
2023-07-11T02:08:56.194Z,11.83
2023-07-11T02:09:31.232Z,11.67
2023-07-11T02:10:04.134Z,11.87
2023-07-11T02:10:36.241Z,12.43
2023-07-11T02:11:10.864Z,12.13
2023-07-11T02:11:45.235Z,11.70
2023-07-11T02:12:19.503Z,12.17
2023-07-11T02:13:01.679Z,11.87
2023-07-11T02:13:34.838Z,11.63
2023-07-11T02:14:07.078Z,12.40
2023-07-11T02:14:42.627Z,12.20
2023-07-11T02:15:19.242Z,12.40
2023-07-11T02:16:45.189Z,11.97
2023-07-11T02:17:19.124Z,11.87
2023-07-11T02:17:57.992Z,12.27
2023-07-11T02:18:34.919Z,12.10
2023-07-11T02:19:09.066Z,11.90
2023-07-11T02:19:44.085Z,11.70
2023-07-11T02:20:18.645Z,11.33
2023-07-11T02:20:57.292Z,12.27
2023-07-11T02:21:34.767Z,11.70
2023-07-11T02:22:14.293Z,11.50
2023-07-11T02:22:49.840Z,11.63
2023-07-11T02:23:24.420Z,12.13
2023-07-11T02:24:03.024Z,11.67
2023-07-11T02:24:53.549Z,11.70
2023-07-11T02:25:37.824Z,11.70
2023-07-11T02:26:14.745Z,11.77
2023-07-11T02:27:11.304Z,11.83
2023-07-11T02:27:50.530Z,11.77
2023-07-11T02:28:23.133Z,12.40
2023-07-11T02:28:56.877Z,12.23
2023-07-11T02:29:30.883Z,11.70
2023-07-11T02:30:08.536Z,11.83
2023-07-11T02:30:42.508Z,12.73
2023-07-11T02:31:20.619Z,11.77
2023-07-11T02:31:56.371Z,12.47
2023-07-11T02:32:33.376Z,11.67
2023-07-11T02:33:08.791Z,11.27
2023-07-11T02:33:48.810Z,12.03
2023-07-11T02:34:31.087Z,11.97
2023-07-11T02:35:08.996Z,11.67
2023-07-11T02:35:42.542Z,11.00
2023-07-11T02:36:20.503Z,11.80
2023-07-11T02:36:53.596Z,11.90
2023-07-11T02:37:27.713Z,11.87
2023-07-11T02:38:00.522Z,11.23
2023-07-11T02:38:32.861Z,11.23
2023-07-11T02:39:06.450Z,11.70
2023-07-11T02:39:41.274Z,11.23
2023-07-11T02:40:14.253Z,11.40
2023-07-11T02:40:46.451Z,11.63
2023-07-11T02:41:22.608Z,11.10
2023-07-11T02:41:54.693Z,10.90
2023-07-11T02:42:27.909Z,11.23
2023-07-11T02:43:01.750Z,11.10
2023-07-11T02:43:35.751Z,11.60
2023-07-11T02:44:10.709Z,11.33
2023-07-11T02:44:47.931Z,11.13
2023-07-11T02:45:21.386Z,11.23
2023-07-11T02:45:54.836Z,10.93
2023-07-11T02:46:28.830Z,10.80
2023-07-11T02:47:03.009Z,11.30
2023-07-11T02:47:38.292Z,11.00
2023-07-11T02:48:11.768Z,11.30
2023-07-11T02:48:48.072Z,11.57
2023-07-11T02:49:23.923Z,10.77
2023-07-11T02:49:55.945Z,10.93
2023-07-11T02:50:29.141Z,10.93
2023-07-11T02:51:02.164Z,11.10
2023-07-11T02:51:35.094Z,11.67
2023-07-11T02:52:12.372Z,10.87
2023-07-11T02:52:47.191Z,10.03
2023-07-11T02:53:21.484Z,10.50
2023-07-11T02:53:53.585Z,10.77
2023-07-11T02:54:25.762Z,11.50
2023-07-11T02:55:01.411Z,11.83
2023-07-11T02:55:39.756Z,10.93
2023-07-11T02:56:16.320Z,11.00
2023-07-11T02:56:48.768Z,10.83
2023-07-11T02:57:22.305Z,10.63
2023-07-11T02:57:54.468Z,10.50
2023-07-11T02:58:28.296Z,11.23
2023-07-11T02:59:00.930Z,11.07
2023-07-11T02:59:33.794Z,10.53
2023-07-11T03:00:21.653Z,10.50
2023-07-11T03:00:57.001Z,11.30
2023-07-11T03:01:35.595Z,10.23
2023-07-11T03:02:17.178Z,10.93
2023-07-11T03:02:50.248Z,11.00
2023-07-11T03:03:23.711Z,11.07
2023-07-11T03:04:00.562Z,10.97
2023-07-11T03:04:35.603Z,10.63
2023-07-11T03:05:09.637Z,11.63
2023-07-11T03:05:44.337Z,11.50
2023-07-11T03:06:21.902Z,10.90
2023-07-11T03:06:55.722Z,11.43
2023-07-11T03:07:30.403Z,11.03
2023-07-11T03:08:06.040Z,11.07
2023-07-11T03:08:40.271Z,10.80
2023-07-11T03:09:14.187Z,10.60
2023-07-11T03:09:47.646Z,10.87
2023-07-11T03:10:21.250Z,10.60
2023-07-11T03:10:59.117Z,11.63
2023-07-11T03:11:33.109Z,11.20
2023-07-11T03:12:08.669Z,11.87
2023-07-11T03:12:42.568Z,10.93
2023-07-11T03:13:18.058Z,11.73
2023-07-11T03:13:51.860Z,12.30
2023-07-11T03:14:28.131Z,12.10
2023-07-11T03:15:03.637Z,11.87
2023-07-11T03:15:39.923Z,11.50
2023-07-11T03:16:13.546Z,11.77
2023-07-11T03:16:52.405Z,11.97
2023-07-11T03:17:25.854Z,11.27
2023-07-11T03:17:59.610Z,11.67
2023-07-11T03:18:33.959Z,11.40
2023-07-11T03:19:07.123Z,11.53
2023-07-11T03:19:40.445Z,11.67
2023-07-11T03:20:15.178Z,10.73
2023-07-11T03:20:47.240Z,11.07
2023-07-11T03:21:22.839Z,11.20
2023-07-11T03:21:58.035Z,11.53
2023-07-11T03:22:31.013Z,11.97
2023-07-11T03:23:08.044Z,11.53
2023-07-11T03:23:41.458Z,11.27
2023-07-11T03:24:14.421Z,11.93
2023-07-11T03:24:49.812Z,11.47
2023-07-11T03:25:25.797Z,11.30
2023-07-11T03:25:58.516Z,10.80
2023-07-11T03:26:31.867Z,10.77
2023-07-11T03:27:06.188Z,11.27
2023-07-11T03:27:39.358Z,11.67
2023-07-11T03:28:13.011Z,11.57
2023-07-11T03:28:46.816Z,11.40
2023-07-11T03:29:21.534Z,11.60
2023-07-11T03:29:55.173Z,11.77
2023-07-11T03:30:30.008Z,10.40
2023-07-11T03:31:03.687Z,10.63
2023-07-11T03:31:36.707Z,11.00
2023-07-11T03:32:12.366Z,10.70
2023-07-11T03:32:47.140Z,11.90
2023-07-11T03:33:20.700Z,11.43
2023-07-11T03:33:54.904Z,11.13
2023-07-11T03:34:30.279Z,11.43
2023-07-11T03:35:05.664Z,11.50
2023-07-11T03:35:39.953Z,11.27
2023-07-11T03:36:15.322Z,11.20
2023-07-11T03:36:50.102Z,12.03
2023-07-11T03:37:24.551Z,11.00
2023-07-11T03:37:57.246Z,11.57
2023-07-11T03:38:35.403Z,11.43
2023-07-11T03:39:09.166Z,11.63
2023-07-11T03:39:41.668Z,10.73
2023-07-11T03:40:16.329Z,11.40
2023-07-11T03:40:48.605Z,11.50
2023-07-11T03:41:22.847Z,11.33
2023-07-11T03:41:56.794Z,11.93
2023-07-11T03:42:30.404Z,11.60
2023-07-11T03:43:04.853Z,12.03
2023-07-11T03:43:40.662Z,11.67
2023-07-11T03:44:15.112Z,10.93
2023-07-11T03:44:48.756Z,11.43
2023-07-11T03:45:23.252Z,12.27
2023-07-11T03:45:58.478Z,10.97
2023-07-11T03:46:32.600Z,10.47
2023-07-11T03:47:06.619Z,12.07
2023-07-11T03:47:40.142Z,11.83
2023-07-11T03:48:14.441Z,11.37
2023-07-11T03:48:48.821Z,11.73
2023-07-11T03:49:23.149Z,11.83
2023-07-11T03:49:58.764Z,11.70
2023-07-11T03:50:32.128Z,11.10
2023-07-11T03:51:05.567Z,11.50
2023-07-11T03:51:39.329Z,11.70
2023-07-11T03:52:13.518Z,11.83
2023-07-11T03:52:46.817Z,12.17
2023-07-11T03:53:20.693Z,12.17
2023-07-11T03:53:56.599Z,11.20
2023-07-11T03:54:33.274Z,11.30
2023-07-11T03:55:07.647Z,11.13
2023-07-11T03:55:43.248Z,11.60
2023-07-11T03:56:18.369Z,11.30
2023-07-11T03:56:53.594Z,11.93
2023-07-11T03:57:29.462Z,11.57
2023-07-11T03:58:03.339Z,11.40
2023-07-11T03:58:35.941Z,11.17
2023-07-11T03:59:09.411Z,11.57
2023-07-11T03:59:42.398Z,11.57
2023-07-11T04:00:16.754Z,11.10
2023-07-11T04:00:49.563Z,11.13
2023-07-11T04:01:23.631Z,11.03
2023-07-11T04:01:57.651Z,10.73
2023-07-11T04:02:30.169Z,11.27
2023-07-11T04:03:05.292Z,11.17
2023-07-11T04:03:39.698Z,10.60
2023-07-11T04:04:15.589Z,10.80
2023-07-11T04:04:48.912Z,10.70
2023-07-11T04:05:21.849Z,11.13
2023-07-11T04:05:56.374Z,11.60
2023-07-11T04:06:31.276Z,11.40
2023-07-11T04:07:05.410Z,10.47
2023-07-11T04:07:39.439Z,10.93
2023-07-11T04:08:15.430Z,11.67
2023-07-11T04:08:50.976Z,11.43
2023-07-11T04:09:27.038Z,11.30
2023-07-11T04:10:01.377Z,10.63
2023-07-11T04:10:35.563Z,10.13
2023-07-11T04:11:08.998Z,10.70
2023-07-11T04:11:46.739Z,11.57
2023-07-11T04:12:22.391Z,11.17
2023-07-11T04:12:57.476Z,10.20
2023-07-11T04:13:32.392Z,11.03
2023-07-11T04:14:07.691Z,10.97
2023-07-11T04:14:41.211Z,11.30
2023-07-11T04:15:17.021Z,11.70
2023-07-11T04:15:52.083Z,11.07
2023-07-11T04:16:25.254Z,11.23
2023-07-11T04:16:59.930Z,10.57
2023-07-11T04:17:39.395Z,11.20
2023-07-11T04:18:13.478Z,11.27
2023-07-11T04:18:55.219Z,11.67
2023-07-11T04:19:28.549Z,10.37
2023-07-11T04:20:03.277Z,11.07
2023-07-11T04:20:37.618Z,10.50
2023-07-11T04:21:11.540Z,11.03
2023-07-11T04:21:45.844Z,10.77
2023-07-11T04:22:20.175Z,10.13
2023-07-11T04:22:54.934Z,10.30
2023-07-11T04:23:29.815Z,11.67
2023-07-11T04:24:03.845Z,11.07
2023-07-11T04:24:39.893Z,10.93
2023-07-11T04:25:13.944Z,10.47
2023-07-11T04:25:46.151Z,11.30
2023-07-11T04:26:19.669Z,11.10
2023-07-11T04:26:54.815Z,11.00
2023-07-11T04:27:29.308Z,10.57
2023-07-11T04:28:04.637Z,9.80
2023-07-11T04:28:40.202Z,10.83
2023-07-11T04:29:17.304Z,11.20
2023-07-11T04:29:55.654Z,10.40
2023-07-11T04:30:31.130Z,10.67
2023-07-11T04:31:05.808Z,10.60
2023-07-11T04:31:39.744Z,9.90
2023-07-11T04:32:14.872Z,10.40
2023-07-11T04:32:47.913Z,10.77
2023-07-11T04:33:25.065Z,10.73
2023-07-11T04:34:00.800Z,10.70
2023-07-11T04:34:37.544Z,10.57
2023-07-11T04:35:16.071Z,10.87
2023-07-11T04:35:50.738Z,11.03
2023-07-11T04:36:23.802Z,9.57
2023-07-11T04:36:57.897Z,10.30
2023-07-11T04:37:30.748Z,11.23
2023-07-11T04:38:05.508Z,10.40
2023-07-11T04:38:41.383Z,11.17
2023-07-11T04:39:16.065Z,10.53
2023-07-11T04:39:52.178Z,10.57
2023-07-11T04:40:26.025Z,10.43
2023-07-11T04:41:03.549Z,11.00
2023-07-11T04:41:37.826Z,11.23
2023-07-11T04:42:11.692Z,10.73
2023-07-11T04:42:46.411Z,10.77
2023-07-11T04:43:21.055Z,10.77
2023-07-11T04:43:56.542Z,11.47
2023-07-11T04:44:31.346Z,10.93
2023-07-11T04:45:06.860Z,10.83
2023-07-11T04:45:40.673Z,10.40
2023-07-11T04:46:15.856Z,10.43
2023-07-11T04:46:58.675Z,10.90
2023-07-11T04:47:32.920Z,11.00
2023-07-11T04:48:07.547Z,10.50
2023-07-11T04:48:40.935Z,10.77
2023-07-11T04:49:17.715Z,10.50
2023-07-11T04:49:51.174Z,10.97
2023-07-11T04:50:24.525Z,10.93
2023-07-11T04:51:00.953Z,11.30
2023-07-11T04:51:34.233Z,10.17
2023-07-11T04:52:08.895Z,10.07
2023-07-11T04:52:41.539Z,10.13
2023-07-11T04:53:14.535Z,10.20
2023-07-11T04:53:48.432Z,11.10
2023-07-11T04:54:21.483Z,10.77
2023-07-11T04:54:57.979Z,10.10
2023-07-11T04:55:32.099Z,10.80
2023-07-11T04:56:09.841Z,11.07
2023-07-11T04:56:43.849Z,10.63
2023-07-11T04:57:18.579Z,10.23
2023-07-11T04:57:52.523Z,10.00
2023-07-11T04:58:26.533Z,10.20
2023-07-11T04:59:03.460Z,10.17
2023-07-11T04:59:37.327Z,10.20
2023-07-11T05:00:13.762Z,9.93
2023-07-11T05:00:50.725Z,10.63
2023-07-11T05:01:25.925Z,11.07
2023-07-11T05:01:59.788Z,10.87
2023-07-11T05:02:36.180Z,10.77
2023-07-11T05:03:10.966Z,10.17
2023-07-11T05:03:47.960Z,9.80
2023-07-11T05:04:24.439Z,10.40
2023-07-11T05:04:57.607Z,10.70
2023-07-11T05:05:35.585Z,10.97
2023-07-11T05:06:11.169Z,10.03
2023-07-11T05:06:48.629Z,10.00
2023-07-11T05:07:23.905Z,10.37
2023-07-11T05:07:58.624Z,10.37
2023-07-11T05:08:34.959Z,10.33
2023-07-11T05:09:13.760Z,10.13
2023-07-11T05:09:58.114Z,10.13
2023-07-11T05:10:36.159Z,9.83
2023-07-11T05:11:14.396Z,10.13
2023-07-11T05:11:49.532Z,10.23
2023-07-11T05:12:24.747Z,9.30
2023-07-11T05:13:00.516Z,10.47
2023-07-11T05:13:36.987Z,10.73
2023-07-11T05:14:12.817Z,10.37
2023-07-11T05:14:47.228Z,9.87
2023-07-11T05:15:22.002Z,10.13
2023-07-11T05:16:02.323Z,10.40
2023-07-11T05:16:38.820Z,10.67
2023-07-11T05:17:14.806Z,10.10
2023-07-11T05:17:49.841Z,10.33
2023-07-11T05:18:24.396Z,9.53
2023-07-11T05:18:59.503Z,10.20
2023-07-11T05:19:34.936Z,9.80
2023-07-11T05:20:10.847Z,9.73
2023-07-11T05:20:46.371Z,10.23
2023-07-11T05:21:20.749Z,9.97
2023-07-11T05:21:56.912Z,10.00
2023-07-11T05:22:32.493Z,9.67
2023-07-11T05:23:06.846Z,9.63
2023-07-11T05:23:41.793Z,9.17
2023-07-11T05:24:17.653Z,9.03
2023-07-11T05:24:53.020Z,9.87
2023-07-11T05:25:25.523Z,9.47
2023-07-11T05:26:07.172Z,9.57
2023-07-11T05:26:41.266Z,10.20
2023-07-11T05:27:15.026Z,9.80
2023-07-11T05:27:49.266Z,9.57
2023-07-11T05:28:24.721Z,9.40
2023-07-11T05:28:58.213Z,9.07
2023-07-11T05:29:35.564Z,9.87
2023-07-11T05:30:14.330Z,9.83
2023-07-11T05:30:50.300Z,10.03
2023-07-11T05:31:26.083Z,9.87
2023-07-11T05:32:03.150Z,10.27
2023-07-11T05:32:38.251Z,9.53
2023-07-11T05:33:13.995Z,9.60
2023-07-11T05:33:52.301Z,9.73
2023-07-11T05:34:29.972Z,9.73
2023-07-11T05:35:07.803Z,9.20
2023-07-11T05:35:44.622Z,8.97
2023-07-11T05:36:18.264Z,8.87
2023-07-11T05:36:53.407Z,9.10
2023-07-11T05:37:26.058Z,9.40
2023-07-11T05:38:04.474Z,9.37
2023-07-11T05:38:38.525Z,8.70
2023-07-11T05:39:16.073Z,9.67
2023-07-11T05:39:50.068Z,9.73
2023-07-11T05:40:25.871Z,9.33
2023-07-11T05:41:00.237Z,9.37
2023-07-11T05:41:42.141Z,8.50
2023-07-11T05:42:16.484Z,8.77
2023-07-11T05:42:51.517Z,8.70
2023-07-11T05:43:26.033Z,8.93
2023-07-11T05:44:01.390Z,9.13
2023-07-11T05:44:38.357Z,8.90
2023-07-11T05:45:14.425Z,8.97
2023-07-11T05:45:49.250Z,9.70
2023-07-11T05:46:23.759Z,9.80
2023-07-11T05:47:01.985Z,9.00
2023-07-11T05:47:39.332Z,8.80
2023-07-11T05:48:14.887Z,8.53
2023-07-11T05:48:48.716Z,9.07
2023-07-11T05:49:21.999Z,9.27
2023-07-11T05:49:55.323Z,9.20
2023-07-11T05:50:29.647Z,9.10
2023-07-11T05:51:07.881Z,9.00
2023-07-11T05:51:41.899Z,8.17
2023-07-11T05:52:15.728Z,8.37
2023-07-11T05:52:50.148Z,9.17
2023-07-11T05:53:26.357Z,9.20
2023-07-11T05:54:01.649Z,9.27
2023-07-11T05:54:36.003Z,8.60
2023-07-11T05:55:10.536Z,8.97
2023-07-11T05:55:43.788Z,9.53
2023-07-11T05:56:18.944Z,9.07
2023-07-11T05:56:53.775Z,8.53
2023-07-11T05:57:28.250Z,8.73
2023-07-11T05:58:05.927Z,9.73
2023-07-11T05:58:40.959Z,9.47
2023-07-11T05:59:18.318Z,8.83
2023-07-11T05:59:55.372Z,8.73
2023-07-11T06:00:30.737Z,8.63
2023-07-11T06:01:08.477Z,8.43
2023-07-11T06:01:43.112Z,8.70
2023-07-11T06:02:18.461Z,8.70
2023-07-11T06:02:51.533Z,8.60
2023-07-11T06:03:26.634Z,8.47
2023-07-11T06:04:08.889Z,9.57
2023-07-11T06:04:43.177Z,9.23
2023-07-11T06:05:16.256Z,9.20
2023-07-11T06:05:48.697Z,8.83
2023-07-11T06:06:24.062Z,9.00
2023-07-11T06:06:56.533Z,8.83
2023-07-11T06:07:30.024Z,8.53
2023-07-11T06:08:07.649Z,8.60
2023-07-11T06:08:42.983Z,8.60
2023-07-11T06:09:19.178Z,9.13
2023-07-11T06:09:53.659Z,8.73
2023-07-11T06:10:27.114Z,9.13
2023-07-11T06:11:04.629Z,8.83
2023-07-11T06:11:38.557Z,8.87
2023-07-11T06:12:14.669Z,8.77
2023-07-11T06:12:49.245Z,9.07
2023-07-11T06:13:22.779Z,8.70
2023-07-11T06:13:56.650Z,8.30
2023-07-11T06:14:32.642Z,9.13
2023-07-11T06:15:08.447Z,9.17
2023-07-11T06:15:41.932Z,9.07
2023-07-11T06:16:17.956Z,8.43
2023-07-11T06:16:54.239Z,8.70
2023-07-11T06:17:28.803Z,8.90
2023-07-11T06:18:02.285Z,8.40
2023-07-11T06:18:38.584Z,9.07
2023-07-11T06:19:11.717Z,8.77
2023-07-11T06:19:47.411Z,8.70
2023-07-11T06:20:19.994Z,9.40
2023-07-11T06:20:53.035Z,9.40
2023-07-11T06:21:26.959Z,9.33
2023-07-11T06:22:01.293Z,8.67
2023-07-11T06:22:35.401Z,8.57
2023-07-11T06:23:10.345Z,9.40
2023-07-11T06:23:50.067Z,8.57
2023-07-11T06:24:22.966Z,9.37
2023-07-11T06:24:56.596Z,8.60
2023-07-11T06:25:33.092Z,8.87
2023-07-11T06:26:07.881Z,9.20
2023-07-11T06:26:41.328Z,9.67
2023-07-11T06:27:15.933Z,9.17
2023-07-11T06:27:49.895Z,9.13
2023-07-11T06:28:23.226Z,8.57
2023-07-11T06:28:56.577Z,8.87
2023-07-11T06:29:31.824Z,9.30
2023-07-11T06:30:08.441Z,9.47
2023-07-11T06:30:44.480Z,8.93
2023-07-11T06:31:21.943Z,9.30
2023-07-11T06:31:56.109Z,9.23
2023-07-11T06:32:30.624Z,9.80
2023-07-11T06:33:04.793Z,9.13
2023-07-11T06:33:39.633Z,9.20
2023-07-11T06:34:14.237Z,9.80
2023-07-11T06:34:52.174Z,9.77
2023-07-11T06:35:28.182Z,9.17
2023-07-11T06:36:04.794Z,9.43
2023-07-11T06:36:39.597Z,9.20
2023-07-11T06:37:12.388Z,9.10
2023-07-11T06:37:47.341Z,9.63
2023-07-11T06:38:22.780Z,9.60
2023-07-11T06:38:56.902Z,9.93
2023-07-11T06:39:30.653Z,9.07
2023-07-11T06:40:03.893Z,8.53
2023-07-11T06:40:38.834Z,9.17
2023-07-11T06:41:13.929Z,9.33
2023-07-11T06:41:46.963Z,8.77
2023-07-11T06:42:20.970Z,8.80
2023-07-11T06:42:53.560Z,9.33
2023-07-11T06:43:29.482Z,8.93
2023-07-11T06:44:02.601Z,9.33
2023-07-11T06:44:39.837Z,9.63
2023-07-11T06:45:13.206Z,9.00
2023-07-11T06:45:47.852Z,9.40
2023-07-11T06:46:22.629Z,9.33
2023-07-11T06:46:55.142Z,9.27
2023-07-11T06:47:28.689Z,9.23
2023-07-11T06:48:01.592Z,9.27
2023-07-11T06:48:35.009Z,9.13
2023-07-11T06:49:08.816Z,9.10
2023-07-11T06:49:41.267Z,9.63
2023-07-11T06:50:18.851Z,9.70
2023-07-11T06:50:56.923Z,9.20
2023-07-11T06:51:34.211Z,9.03
2023-07-11T06:52:11.021Z,9.53
2023-07-11T06:52:47.901Z,9.23
2023-07-11T06:53:22.768Z,9.77
2023-07-11T06:53:56.125Z,9.60
2023-07-11T06:54:29.777Z,9.03
2023-07-11T06:55:02.508Z,9.73
2023-07-11T06:55:35.670Z,9.43
2023-07-11T06:56:12.068Z,9.43
2023-07-11T06:56:47.706Z,9.13
2023-07-11T06:57:23.417Z,9.57
2023-07-11T06:57:56.853Z,9.47
2023-07-11T06:58:31.228Z,9.27
2023-07-11T06:59:04.162Z,10.00
2023-07-11T06:59:40.368Z,9.40
2023-07-11T07:00:16.948Z,9.67
2023-07-11T07:00:57.232Z,10.00
2023-07-11T07:01:36.461Z,9.77
2023-07-11T07:02:12.406Z,9.40
2023-07-11T07:02:44.930Z,9.27
2023-07-11T07:03:18.558Z,9.27
2023-07-11T07:03:55.310Z,8.90
2023-07-11T07:04:28.283Z,9.10
2023-07-11T07:05:01.048Z,9.60
2023-07-11T07:05:35.595Z,9.23
2023-07-11T07:06:14.904Z,9.40
2023-07-11T07:06:48.723Z,9.37
2023-07-11T07:07:23.011Z,9.00
2023-07-11T07:08:08.938Z,8.57
2023-07-11T07:08:46.395Z,9.53
2023-07-11T07:09:19.780Z,9.40
2023-07-11T07:09:53.771Z,9.50
2023-07-11T07:10:26.012Z,9.23
2023-07-11T07:11:00.529Z,9.67
2023-07-11T07:11:35.292Z,8.90
2023-07-11T07:12:07.926Z,9.37
2023-07-11T07:12:44.299Z,9.57
2023-07-11T07:13:18.682Z,8.93
2023-07-11T07:14:04.104Z,8.83
2023-07-11T07:14:40.027Z,8.83
2023-07-11T07:15:16.213Z,9.47
2023-07-11T07:15:53.611Z,9.17
2023-07-11T07:16:27.356Z,9.40
2023-07-11T07:17:08.306Z,9.37
2023-07-11T07:17:41.045Z,9.07
2023-07-11T07:18:13.652Z,9.10
2023-07-11T07:18:48.106Z,9.17
2023-07-11T07:19:25.422Z,8.70
2023-07-11T07:20:00.361Z,9.23
2023-07-11T07:20:39.127Z,8.97
2023-07-11T07:21:17.077Z,8.87
2023-07-11T07:21:51.920Z,9.07
2023-07-11T07:22:25.795Z,9.07
2023-07-11T07:22:58.580Z,8.60
2023-07-11T07:23:38.681Z,9.03
2023-07-11T07:24:14.577Z,8.83
2023-07-11T07:24:50.071Z,9.07
2023-07-11T07:25:25.843Z,8.93
2023-07-11T07:26:03.496Z,9.23
2023-07-11T07:26:37.999Z,9.07
2023-07-11T07:27:27.730Z,9.23
2023-07-11T07:28:03.435Z,8.70
2023-07-11T07:28:36.757Z,8.73
2023-07-11T07:29:11.460Z,8.90
2023-07-11T07:29:51.344Z,8.77
2023-07-11T07:30:27.454Z,8.80
2023-07-11T07:31:00.453Z,8.63
2023-07-11T07:31:33.387Z,8.67
2023-07-11T07:32:09.003Z,8.97
2023-07-11T07:32:44.883Z,8.67
2023-07-11T07:33:17.920Z,9.13
2023-07-11T07:33:51.056Z,8.63
2023-07-11T07:34:24.197Z,9.00
2023-07-11T07:35:05.656Z,9.13
2023-07-11T07:35:38.778Z,8.63
2023-07-11T07:36:13.957Z,8.73
2023-07-11T07:36:46.947Z,9.27
2023-07-11T07:37:19.980Z,9.30
2023-07-11T07:37:52.770Z,8.57
2023-07-11T07:38:28.437Z,9.20
2023-07-11T07:39:01.934Z,8.97
2023-07-11T07:39:34.545Z,8.30
2023-07-11T07:40:08.662Z,8.17